TimeMST,TemperatureF,Dew PointF,Humidity,Sea Level PressureIn,VisibilityMPH,Wind Direction,Wind SpeedMPH,Gust SpeedMPH,PrecipitationIn,Events,Conditions,WindDirDegrees,DateUTC
12:54 AM,35.1,16.0,46,30.08,10.0,NNE,11.5,-,N/A,,Clear,30,2013-01-25 07:54:00
1:54 AM,36.0,16.0,44,30.08,10.0,NE,4.6,-,N/A,,Clear,50,2013-01-25 08:54:00
2:54 AM,39.9,18.0,41,30.08,10.0,SSW,3.5,-,N/A,,Clear,210,2013-01-25 09:54:00
3:54 AM,42.1,15.1,34,30.07,10.0,SSW,8.1,-,N/A,,Clear,200,2013-01-25 10:54:00
4:54 AM,37.4,12.2,36,30.18,10.0,SE,6.9,-,N/A,,Clear,140,2013-01-25 11:54:00
5:54 AM,33.1,15.1,48,30.19,10.0,SSE,8.1,-,N/A,,Clear,160,2013-01-25 12:54:00
6:54 AM,32.0,18.0,56,30.23,10.0,SSE,6.9,-,N/A,,Clear,160,2013-01-25 13:54:00
7:54 AM,32.0,18.0,56,30.26,10.0,SE,5.8,-,N/A,,Partly Cloudy,140,2013-01-25 14:54:00
8:54 AM,37.9,19.0,47,30.25,10.0,NE,4.6,-,N/A,,Partly Cloudy,50,2013-01-25 15:54:00
9:54 AM,41.0,21.9,47,30.22,10.0,South,6.9,-,N/A,,Partly Cloudy,170,2013-01-25 16:54:00
10:54 AM,44.1,21.9,42,30.23,10.0,SSE,9.2,-,N/A,,Partly Cloudy,160,2013-01-25 17:54:00
11:54 AM,43.0,21.0,42,30.19,10.0,SE,9.2,-,N/A,,Partly Cloudy,140,2013-01-25 18:54:00
12:54 PM,44.1,19.9,38,30.16,10.0,SE,11.5,17.3,N/A,,Clear,140,2013-01-25 19:54:00
1:54 PM,46.0,19.9,35,30.12,10.0,SSE,9.2,-,N/A,,Partly Cloudy,150,2013-01-25 20:54:00
2:54 PM,48.0,21.0,34,30.09,10.0,SE,4.6,-,N/A,,Partly Cloudy,140,2013-01-25 21:54:00
3:54 PM,48.0,19.9,33,30.07,10.0,SSE,4.6,-,N/A,,Scattered Clouds,160,2013-01-25 22:54:00
4:54 PM,46.9,21.0,36,30.10,10.0,Calm,Calm,-,N/A,,Partly Cloudy,0,2013-01-25 23:54:00
5:54 PM,45.0,21.0,39,30.14,10.0,Calm,Calm,-,N/A,,Scattered Clouds,0,2013-01-26 00:54:00
6:54 PM,37.9,18.0,45,30.17,10.0,NNE,5.8,-,N/A,,Partly Cloudy,20,2013-01-26 01:54:00
7:54 PM,34.0,18.0,52,30.18,10.0,North,5.8,-,N/A,,Clear,10,2013-01-26 02:54:00
8:54 PM,35.1,19.0,52,30.14,10.0,North,5.8,-,N/A,,Clear,360,2013-01-26 03:54:00
9:54 PM,34.0,19.0,54,30.13,10.0,North,6.9,-,N/A,,Clear,10,2013-01-26 04:54:00
10:54 PM,32.0,19.0,59,30.13,10.0,North,9.2,-,N/A,,Clear,360,2013-01-26 05:54:00
11:54 PM,32.0,19.0,59,30.11,10.0,North,8.1,-,N/A,,Clear,10,2013-01-26 06:54:00